Coffman, Missouri
Current Conditions -  °F | °C
As of 7:15 PM on Sunday 23 Nov 2014 (Local Time) from KSAR Reporting Station
Haze Haze  
Wind Chill: 52°   Ceiling: 400
Heat Index: 52°   Visibility: 3mi
Dew Point: 52°   Wind: 0mph
Humidity: 99%   Direction: NA
Pressure: 29.29"   Gusts: NA
Location:  37.9762°N, 90.0499°W
Report Text: KSAR 240115Z AUTO 00000KT 3SM BR OVC004 11/11 A2929 RMK AO2 T01110110
Loading
Personal Weather Stations






























Interactive Weather Map New forecast layout! Learn more

10-Day Weather Forecast

Advertisements
Track Severe Weather on mobile